sensor_id;sensor_type;location;lat;lon;timestamp;P1;durP1;ratioP1;P2;durP2;ratioP2
20458;SDS011;10388;52.314;7.938;2024-03-23T00:53:34;12.63;;;4.80;;
20458;SDS011;10388;52.314;7.938;2024-03-23T00:56:05;13.20;;;4.20;;
20458;SDS011;10388;52.314;7.938;2024-03-23T00:58:35;14.07;;;5.30;;
20458;SDS011;10388;52.314;7.938;2024-03-23T01:01:06;10.77;;;5.03;;
20458;SDS011;10388;52.314;7.938;2024-03-23T01:03:37;10.87;;;5.17;;
20458;SDS011;10388;52.314;7.938;2024-03-23T01:06:07;11.10;;;4.77;;
20458;SDS011;10388;52.314;7.938;2024-03-23T01:08:38;10.20;;;5.53;;
20458;SDS011;10388;52.314;7.938;2024-03-23T01:11:08;15.83;;;5.30;;
20458;SDS011;10388;52.314;7.938;2024-03-23T01:13:39;11.53;;;4.87;;
20458;SDS011;10388;52.314;7.938;2024-03-23T01:16:09;10.93;;;4.67;;
20458;SDS011;10388;52.314;7.938;2024-03-23T01:18:40;9.17;;;4.10;;
20458;SDS011;10388;52.314;7.938;2024-03-23T01:21:10;11.17;;;4.93;;
20458;SDS011;10388;52.314;7.938;2024-03-23T01:23:41;13.73;;;4.93;;
20458;SDS011;10388;52.314;7.938;2024-03-23T01:26:12;18.17;;;7.17;;
20458;SDS011;10388;52.314;7.938;2024-03-23T01:28:43;9.87;;;4.50;;
20458;SDS011;10388;52.314;7.938;2024-03-23T01:31:13;13.97;;;6.20;;
20458;SDS011;10388;52.314;7.938;2024-03-23T01:33:46;12.67;;;4.67;;
20458;SDS011;10388;52.314;7.938;2024-03-23T01:36:16;15.60;;;5.13;;
20458;SDS011;10388;52.314;7.938;2024-03-23T01:38:50;13.17;;;5.70;;
20458;SDS011;10388;52.314;7.938;2024-03-23T01:41:22;11.70;;;4.83;;
20458;SDS011;10388;52.314;7.938;2024-03-23T01:43:54;12.27;;;5.00;;
20458;SDS011;10388;52.314;7.938;2024-03-23T01:46:33;11.67;;;4.57;;
20458;SDS011;10388;52.314;7.938;2024-03-23T01:49:05;10.93;;;4.80;;
20458;SDS011;10388;52.314;7.938;2024-03-23T01:51:36;14.50;;;4.80;;
20458;SDS011;10388;52.314;7.938;2024-03-23T01:54:07;13.30;;;4.97;;
20458;SDS011;10388;52.314;7.938;2024-03-23T01:56:38;13.10;;;5.07;;
20458;SDS011;10388;52.314;7.938;2024-03-23T01:59:09;14.03;;;4.97;;
20458;SDS011;10388;52.314;7.938;2024-03-23T02:01:40;10.53;;;5.00;;
20458;SDS011;10388;52.314;7.938;2024-03-23T02:04:11;11.70;;;5.07;;
20458;SDS011;10388;52.314;7.938;2024-03-23T02:06:44;13.03;;;5.37;;
20458;SDS011;10388;52.314;7.938;2024-03-23T02:09:15;17.67;;;5.20;;
20458;SDS011;10388;52.314;7.938;2024-03-23T02:11:46;16.27;;;5.20;;
20458;SDS011;10388;52.314;7.938;2024-03-23T02:14:16;13.97;;;5.67;;
20458;SDS011;10388;52.314;7.938;2024-03-23T02:16:47;9.23;;;5.17;;
20458;SDS011;10388;52.314;7.938;2024-03-23T02:19:17;12.20;;;5.47;;
20458;SDS011;10388;52.314;7.938;2024-03-23T02:21:48;15.60;;;5.97;;
20458;SDS011;10388;52.314;7.938;2024-03-23T02:24:19;16.17;;;5.83;;
20458;SDS011;10388;52.314;7.938;2024-03-23T02:26:49;18.37;;;7.23;;
20458;SDS011;10388;52.314;7.938;2024-03-23T02:29:20;17.90;;;6.90;;
20458;SDS011;10388;52.314;7.938;2024-03-23T02:31:51;14.53;;;6.50;;
20458;SDS011;10388;52.314;7.938;2024-03-23T02:34:21;16.00;;;6.83;;
20458;SDS011;10388;52.314;7.938;2024-03-23T02:36:52;16.77;;;7.30;;
20458;SDS011;10388;52.314;7.938;2024-03-23T02:39:25;16.70;;;6.80;;
20458;SDS011;10388;52.314;7.938;2024-03-23T02:41:56;18.27;;;7.03;;
20458;SDS011;10388;52.314;7.938;2024-03-23T02:44:27;17.70;;;6.87;;
20458;SDS011;10388;52.314;7.938;2024-03-23T02:46:58;18.20;;;6.93;;
20458;SDS011;10388;52.314;7.938;2024-03-23T02:49:28;17.80;;;7.90;;
20458;SDS011;10388;52.314;7.938;2024-03-23T02:51:59;15.87;;;6.73;;
20458;SDS011;10388;52.314;7.938;2024-03-23T02:54:30;13.73;;;6.73;;
20458;SDS011;10388;52.314;7.938;2024-03-23T02:57:00;13.27;;;6.90;;
20458;SDS011;10388;52.314;7.938;2024-03-23T02:59:31;16.37;;;8.53;;
20458;SDS011;10388;52.314;7.938;2024-03-23T03:02:02;20.23;;;7.63;;
20458;SDS011;10388;52.314;7.938;2024-03-23T03:04:37;18.70;;;9.30;;
20458;SDS011;10388;52.314;7.938;2024-03-23T03:07:07;19.90;;;9.43;;
20458;SDS011;10388;52.314;7.938;2024-03-23T03:09:41;18.40;;;8.83;;
20458;SDS011;10388;52.314;7.938;2024-03-23T03:12:14;18.53;;;8.87;;
20458;SDS011;10388;52.314;7.938;2024-03-23T03:14:45;18.60;;;7.77;;
20458;SDS011;10388;52.314;7.938;2024-03-23T03:17:15;19.17;;;8.43;;
20458;SDS011;10388;52.314;7.938;2024-03-23T03:19:46;18.83;;;7.50;;
20458;SDS011;10388;52.314;7.938;2024-03-23T03:22:17;21.77;;;9.07;;
20458;SDS011;10388;52.314;7.938;2024-03-23T03:24:48;17.93;;;8.27;;
20458;SDS011;10388;52.314;7.938;2024-03-23T03:27:19;20.47;;;8.03;;
20458;SDS011;10388;52.314;7.938;2024-03-23T03:29:49;18.20;;;7.83;;
20458;SDS011;10388;52.314;7.938;2024-03-23T03:32:20;16.90;;;7.70;;
20458;SDS011;10388;52.314;7.938;2024-03-23T03:34:51;18.63;;;7.57;;
20458;SDS011;10388;52.314;7.938;2024-03-23T03:37:21;18.37;;;8.20;;
20458;SDS011;10388;52.314;7.938;2024-03-23T03:39:52;20.83;;;7.83;;
20458;SDS011;10388;52.314;7.938;2024-03-23T03:42:25;17.23;;;8.37;;
20458;SDS011;10388;52.314;7.938;2024-03-23T03:44:55;21.90;;;8.83;;
20458;SDS011;10388;52.314;7.938;2024-03-23T03:47:26;17.60;;;7.07;;
20458;SDS011;10388;52.314;7.938;2024-03-23T03:49:57;22.13;;;7.37;;
20458;SDS011;10388;52.314;7.938;2024-03-23T03:52:27;14.70;;;6.80;;
20458;SDS011;10388;52.314;7.938;2024-03-23T03:55:01;17.97;;;6.17;;
20458;SDS011;10388;52.314;7.938;2024-03-23T03:57:32;15.20;;;6.10;;
20458;SDS011;10388;52.314;7.938;2024-03-23T04:00:06;19.77;;;7.37;;
20458;SDS011;10388;52.314;7.938;2024-03-23T04:02:41;20.90;;;6.63;;
20458;SDS011;10388;52.314;7.938;2024-03-23T04:05:11;19.70;;;6.27;;
20458;SDS011;10388;52.314;7.938;2024-03-23T04:07:45;18.40;;;6.90;;
20458;SDS011;10388;52.314;7.938;2024-03-23T04:10:15;17.40;;;6.70;;
20458;SDS011;10388;52.314;7.938;2024-03-23T04:12:47;15.07;;;5.90;;
20458;SDS011;10388;52.314;7.938;2024-03-23T04:15:18;18.73;;;5.93;;
20458;SDS011;10388;52.314;7.938;2024-03-23T04:17:49;15.17;;;5.77;;
20458;SDS011;10388;52.314;7.938;2024-03-23T04:20:22;18.30;;;6.10;;
20458;SDS011;10388;52.314;7.938;2024-03-23T04:22:53;13.97;;;6.10;;
20458;SDS011;10388;52.314;7.938;2024-03-23T04:25:24;18.17;;;7.23;;
20458;SDS011;10388;52.314;7.938;2024-03-23T04:27:54;17.30;;;6.23;;
20458;SDS011;10388;52.314;7.938;2024-03-23T04:30:25;21.27;;;5.50;;
20458;SDS011;10388;52.314;7.938;2024-03-23T04:32:58;14.50;;;5.80;;
20458;SDS011;10388;52.314;7.938;2024-03-23T04:35:29;20.50;;;6.80;;
20458;SDS011;10388;52.314;7.938;2024-03-23T04:38:00;20.13;;;6.40;;
20458;SDS011;10388;52.314;7.938;2024-03-23T04:40:30;21.27;;;6.83;;
20458;SDS011;10388;52.314;7.938;2024-03-23T04:43:01;15.63;;;6.30;;
20458;SDS011;10388;52.314;7.938;2024-03-23T04:45:31;17.30;;;5.97;;
20458;SDS011;10388;52.314;7.938;2024-03-23T04:48:02;21.43;;;7.00;;
20458;SDS011;10388;52.314;7.938;2024-03-23T04:50:32;15.83;;;6.80;;
20458;SDS011;10388;52.314;7.938;2024-03-23T04:53:03;19.77;;;6.90;;
20458;SDS011;10388;52.314;7.938;2024-03-23T04:55:34;14.90;;;6.20;;
20458;SDS011;10388;52.314;7.938;2024-03-23T04:58:04;16.90;;;6.53;;
20458;SDS011;10388;52.314;7.938;2024-03-23T05:00:35;17.27;;;6.67;;
20458;SDS011;10388;52.314;7.938;2024-03-23T05:03:05;20.17;;;5.83;;
20458;SDS011;10388;52.314;7.938;2024-03-23T05:05:36;19.10;;;6.20;;
20458;SDS011;10388;52.314;7.938;2024-03-23T05:08:06;23.27;;;6.30;;
20458;SDS011;10388;52.314;7.938;2024-03-23T05:10:37;16.07;;;6.40;;
20458;SDS011;10388;52.314;7.938;2024-03-23T05:13:08;15.70;;;6.10;;
20458;SDS011;10388;52.314;7.938;2024-03-23T05:15:39;20.53;;;6.90;;
20458;SDS011;10388;52.314;7.938;2024-03-23T05:18:09;17.97;;;5.97;;
20458;SDS011;10388;52.314;7.938;2024-03-23T05:20:40;16.37;;;5.60;;
20458;SDS011;10388;52.314;7.938;2024-03-23T05:23:10;14.37;;;5.70;;
20458;SDS011;10388;52.314;7.938;2024-03-23T05:25:41;11.07;;;5.30;;
20458;SDS011;10388;52.314;7.938;2024-03-23T05:28:12;12.73;;;5.53;;
20458;SDS011;10388;52.314;7.938;2024-03-23T05:30:42;14.67;;;5.50;;
20458;SDS011;10388;52.314;7.938;2024-03-23T05:33:13;14.33;;;5.10;;
20458;SDS011;10388;52.314;7.938;2024-03-23T05:35:43;15.40;;;6.30;;
20458;SDS011;10388;52.314;7.938;2024-03-23T05:38:14;18.93;;;7.23;;
20458;SDS011;10388;52.314;7.938;2024-03-23T05:40:52;19.80;;;7.20;;
20458;SDS011;10388;52.314;7.938;2024-03-23T05:43:29;11.43;;;5.97;;
20458;SDS011;10388;52.314;7.938;2024-03-23T05:46:01;17.00;;;7.50;;
20458;SDS011;10388;52.314;7.938;2024-03-23T05:48:32;15.37;;;7.60;;
20458;SDS011;10388;52.314;7.938;2024-03-23T05:51:02;20.73;;;7.80;;
20458;SDS011;10388;52.314;7.938;2024-03-23T05:53:34;21.13;;;8.13;;
20458;SDS011;10388;52.314;7.938;2024-03-23T05:56:05;20.63;;;8.63;;
20458;SDS011;10388;52.314;7.938;2024-03-23T05:58:36;20.73;;;8.80;;
20458;SDS011;10388;52.314;7.938;2024-03-23T06:01:06;25.60;;;9.10;;
20458;SDS011;10388;52.314;7.938;2024-03-23T06:03:37;25.63;;;9.43;;
20458;SDS011;10388;52.314;7.938;2024-03-23T06:06:08;20.73;;;9.87;;
20458;SDS011;10388;52.314;7.938;2024-03-23T06:08:41;26.33;;;9.63;;
20458;SDS011;10388;52.314;7.938;2024-03-23T06:11:12;23.00;;;9.40;;
20458;SDS011;10388;52.314;7.938;2024-03-23T06:13:42;23.33;;;10.13;;
20458;SDS011;10388;52.314;7.938;2024-03-23T06:16:13;28.07;;;11.07;;
20458;SDS011;10388;52.314;7.938;2024-03-23T06:18:43;24.20;;;9.70;;
20458;SDS011;10388;52.314;7.938;2024-03-23T06:21:14;23.83;;;10.30;;
20458;SDS011;10388;52.314;7.938;2024-03-23T06:23:45;24.27;;;11.53;;
20458;SDS011;10388;52.314;7.938;2024-03-23T06:26:21;22.87;;;10.40;;
20458;SDS011;10388;52.314;7.938;2024-03-23T06:28:51;31.87;;;12.30;;
20458;SDS011;10388;52.314;7.938;2024-03-23T06:31:22;22.77;;;10.03;;
20458;SDS011;10388;52.314;7.938;2024-03-23T06:33:52;21.50;;;10.93;;
20458;SDS011;10388;52.314;7.938;2024-03-23T06:36:25;29.50;;;12.33;;
20458;SDS011;10388;52.314;7.938;2024-03-23T06:38:56;21.87;;;10.67;;
20458;SDS011;10388;52.314;7.938;2024-03-23T06:41:26;24.20;;;10.90;;
20458;SDS011;10388;52.314;7.938;2024-03-23T06:43:57;21.90;;;10.20;;
20458;SDS011;10388;52.314;7.938;2024-03-23T06:46:28;23.23;;;10.53;;
20458;SDS011;10388;52.314;7.938;2024-03-23T06:48:58;24.10;;;10.97;;
20458;SDS011;10388;52.314;7.938;2024-03-23T06:51:29;25.73;;;10.57;;
20458;SDS011;10388;52.314;7.938;2024-03-23T06:53:59;23.23;;;11.10;;
20458;SDS011;10388;52.314;7.938;2024-03-23T06:56:30;24.53;;;10.77;;
20458;SDS011;10388;52.314;7.938;2024-03-23T06:59:00;23.67;;;10.10;;
20458;SDS011;10388;52.314;7.938;2024-03-23T07:01:31;18.30;;;9.40;;
20458;SDS011;10388;52.314;7.938;2024-03-23T07:04:02;26.77;;;11.77;;
20458;SDS011;10388;52.314;7.938;2024-03-23T07:06:33;18.80;;;9.17;;
20458;SDS011;10388;52.314;7.938;2024-03-23T07:09:04;21.63;;;9.03;;
20458;SDS011;10388;52.314;7.938;2024-03-23T07:11:35;19.00;;;9.97;;
20458;SDS011;10388;52.314;7.938;2024-03-23T07:14:05;16.90;;;9.63;;
20458;SDS011;10388;52.314;7.938;2024-03-23T07:16:36;18.37;;;9.13;;
20458;SDS011;10388;52.314;7.938;2024-03-23T07:19:06;15.47;;;9.50;;
20458;SDS011;10388;52.314;7.938;2024-03-23T07:21:37;22.50;;;9.00;;
20458;SDS011;10388;52.314;7.938;2024-03-23T07:24:08;21.17;;;8.87;;
20458;SDS011;10388;52.314;7.938;2024-03-23T07:26:38;20.00;;;8.93;;
20458;SDS011;10388;52.314;7.938;2024-03-23T07:29:09;15.73;;;8.13;;
20458;SDS011;10388;52.314;7.938;2024-03-23T07:31:40;16.13;;;7.97;;
20458;SDS011;10388;52.314;7.938;2024-03-23T07:34:11;15.43;;;7.97;;
20458;SDS011;10388;52.314;7.938;2024-03-23T07:36:42;16.77;;;7.13;;
20458;SDS011;10388;52.314;7.938;2024-03-23T07:39:13;15.87;;;7.67;;
20458;SDS011;10388;52.314;7.938;2024-03-23T07:41:46;14.53;;;7.77;;
20458;SDS011;10388;52.314;7.938;2024-03-23T07:44:17;21.53;;;8.90;;
20458;SDS011;10388;52.314;7.938;2024-03-23T07:46:47;16.97;;;7.43;;
20458;SDS011;10388;52.314;7.938;2024-03-23T07:49:18;17.67;;;8.40;;
20458;SDS011;10388;52.314;7.938;2024-03-23T07:51:48;14.07;;;7.77;;
20458;SDS011;10388;52.314;7.938;2024-03-23T07:54:19;16.33;;;6.93;;
20458;SDS011;10388;52.314;7.938;2024-03-23T07:56:50;16.30;;;7.40;;
20458;SDS011;10388;52.314;7.938;2024-03-23T07:59:20;15.57;;;7.43;;
20458;SDS011;10388;52.314;7.938;2024-03-23T08:01:51;15.23;;;6.67;;
20458;SDS011;10388;52.314;7.938;2024-03-23T08:04:21;15.90;;;6.53;;
20458;SDS011;10388;52.314;7.938;2024-03-23T08:06:52;16.83;;;7.57;;
20458;SDS011;10388;52.314;7.938;2024-03-23T08:09:22;11.43;;;5.17;;
20458;SDS011;10388;52.314;7.938;2024-03-23T08:11:53;12.03;;;5.60;;
20458;SDS011;10388;52.314;7.938;2024-03-23T08:14:23;13.63;;;5.73;;
20458;SDS011;10388;52.314;7.938;2024-03-23T08:16:54;15.87;;;5.53;;
20458;SDS011;10388;52.314;7.938;2024-03-23T08:19:25;13.20;;;5.17;;
20458;SDS011;10388;52.314;7.938;2024-03-23T08:21:55;9.17;;;4.77;;
20458;SDS011;10388;52.314;7.938;2024-03-23T08:24:27;12.03;;;4.97;;
20458;SDS011;10388;52.314;7.938;2024-03-23T08:26:58;9.63;;;4.63;;
20458;SDS011;10388;52.314;7.938;2024-03-23T08:29:28;10.07;;;5.40;;
20458;SDS011;10388;52.314;7.938;2024-03-23T08:31:59;14.33;;;5.47;;
20458;SDS011;10388;52.314;7.938;2024-03-23T08:34:30;8.97;;;4.40;;
20458;SDS011;10388;52.314;7.938;2024-03-23T08:37:01;9.40;;;4.43;;
20458;SDS011;10388;52.314;7.938;2024-03-23T08:39:32;9.57;;;4.80;;
20458;SDS011;10388;52.314;7.938;2024-03-23T08:42:02;6.87;;;4.10;;
20458;SDS011;10388;52.314;7.938;2024-03-23T08:44:33;10.40;;;4.40;;
20458;SDS011;10388;52.314;7.938;2024-03-23T08:47:04;9.70;;;4.07;;
20458;SDS011;10388;52.314;7.938;2024-03-23T08:49:34;7.97;;;3.70;;
20458;SDS011;10388;52.314;7.938;2024-03-23T08:52:05;9.63;;;3.63;;
20458;SDS011;10388;52.314;7.938;2024-03-23T08:54:36;9.17;;;4.07;;
20458;SDS011;10388;52.314;7.938;2024-03-23T08:57:06;9.77;;;3.70;;
20458;SDS011;10388;52.314;7.938;2024-03-23T08:59:37;7.50;;;3.53;;
20458;SDS011;10388;52.314;7.938;2024-03-23T09:02:08;6.23;;;3.47;;
20458;SDS011;10388;52.314;7.938;2024-03-23T09:04:39;6.63;;;3.13;;
20458;SDS011;10388;52.314;7.938;2024-03-23T09:07:09;3.83;;;2.77;;
20458;SDS011;10388;52.314;7.938;2024-03-23T09:09:40;4.63;;;2.43;;
20458;SDS011;10388;52.314;7.938;2024-03-23T09:12:10;10.37;;;2.60;;
20458;SDS011;10388;52.314;7.938;2024-03-23T09:14:41;4.13;;;2.47;;
20458;SDS011;10388;52.314;7.938;2024-03-23T09:17:11;4.80;;;2.43;;
20458;SDS011;10388;52.314;7.938;2024-03-23T09:19:42;3.83;;;1.80;;
20458;SDS011;10388;52.314;7.938;2024-03-23T09:22:13;3.73;;;2.10;;
20458;SDS011;10388;52.314;7.938;2024-03-23T09:24:43;4.40;;;2.17;;
20458;SDS011;10388;52.314;7.938;2024-03-23T09:27:14;3.60;;;1.87;;
20458;SDS011;10388;52.314;7.938;2024-03-23T09:29:45;5.17;;;2.30;;
20458;SDS011;10388;52.314;7.938;2024-03-23T09:32:15;6.60;;;2.70;;
20458;SDS011;10388;52.314;7.938;2024-03-23T09:34:46;3.93;;;2.33;;
20458;SDS011;10388;52.314;7.938;2024-03-23T09:37:16;4.07;;;2.33;;
20458;SDS011;10388;52.314;7.938;2024-03-23T09:39:47;5.60;;;2.00;;
20458;SDS011;10388;52.314;7.938;2024-03-23T09:42:17;4.77;;;1.90;;
20458;SDS011;10388;52.314;7.938;2024-03-23T09:44:48;7.77;;;2.60;;
20458;SDS011;10388;52.314;7.938;2024-03-23T09:47:21;8.40;;;2.50;;
20458;SDS011;10388;52.314;7.938;2024-03-23T09:49:51;4.03;;;2.27;;
20458;SDS011;10388;52.314;7.938;2024-03-23T09:52:22;6.13;;;2.90;;
20458;SDS011;10388;52.314;7.938;2024-03-23T09:54:53;8.07;;;2.33;;
20458;SDS011;10388;52.314;7.938;2024-03-23T09:57:23;6.00;;;2.40;;
20458;SDS011;10388;52.314;7.938;2024-03-23T09:59:54;7.63;;;2.60;;
20458;SDS011;10388;52.314;7.938;2024-03-23T10:02:25;5.10;;;3.10;;
20458;SDS011;10388;52.314;7.938;2024-03-23T10:04:56;4.80;;;2.70;;
20458;SDS011;10388;52.314;7.938;2024-03-23T10:07:27;6.10;;;2.50;;
20458;SDS011;10388;52.314;7.938;2024-03-23T10:10:05;4.90;;;2.27;;
20458;SDS011;10388;52.314;7.938;2024-03-23T10:12:45;7.73;;;2.30;;
20458;SDS011;10388;52.314;7.938;2024-03-23T10:15:18;6.53;;;2.07;;
20458;SDS011;10388;52.314;7.938;2024-03-23T10:17:50;4.77;;;2.10;;
20458;SDS011;10388;52.314;7.938;2024-03-23T10:20:22;4.80;;;2.37;;
20458;SDS011;10388;52.314;7.938;2024-03-23T10:22:53;6.47;;;2.50;;
20458;SDS011;10388;52.314;7.938;2024-03-23T10:25:24;5.83;;;2.07;;
20458;SDS011;10388;52.314;7.938;2024-03-23T10:28:00;4.83;;;2.30;;
20458;SDS011;10388;52.314;7.938;2024-03-23T10:30:31;7.33;;;2.57;;
20458;SDS011;10388;52.314;7.938;2024-03-23T10:35:39;3.60;;;2.43;;
20458;SDS011;10388;52.314;7.938;2024-03-23T10:38:10;3.07;;;1.40;;
20458;SDS011;10388;52.314;7.938;2024-03-23T10:40:41;3.70;;;1.60;;
20458;SDS011;10388;52.314;7.938;2024-03-23T10:43:12;2.10;;;1.47;;
20458;SDS011;10388;52.314;7.938;2024-03-23T10:45:43;3.27;;;1.63;;
20458;SDS011;10388;52.314;7.938;2024-03-23T10:48:14;3.47;;;1.63;;
20458;SDS011;10388;52.314;7.938;2024-03-23T10:50:45;3.30;;;1.93;;
20458;SDS011;10388;52.314;7.938;2024-03-23T10:53:15;2.67;;;1.47;;
20458;SDS011;10388;52.314;7.938;2024-03-23T10:55:47;3.20;;;1.70;;
20458;SDS011;10388;52.314;7.938;2024-03-23T10:58:21;3.70;;;1.40;;
20458;SDS011;10388;52.314;7.938;2024-03-23T11:00:54;3.00;;;1.80;;
20458;SDS011;10388;52.314;7.938;2024-03-23T11:06:08;3.03;;;1.87;;
20458;SDS011;10388;52.314;7.938;2024-03-23T11:08:39;3.93;;;1.80;;
20458;SDS011;10388;52.314;7.938;2024-03-23T11:11:14;3.67;;;1.63;;
20458;SDS011;10388;52.314;7.938;2024-03-23T11:13:49;2.40;;;1.40;;
20458;SDS011;10388;52.314;7.938;2024-03-23T11:16:24;2.13;;;1.20;;
20458;SDS011;10388;52.314;7.938;2024-03-23T11:22:04;1.30;;;1.20;;
20458;SDS011;10388;52.314;7.938;2024-03-23T11:24:35;1.57;;;1.40;;
20458;SDS011;10388;52.314;7.938;2024-03-23T11:27:16;1.90;;;0.97;;
20458;SDS011;10388;52.314;7.938;2024-03-23T11:29:47;4.63;;;1.13;;
20458;SDS011;10388;52.314;7.938;2024-03-23T11:32:17;2.43;;;1.00;;
20458;SDS011;10388;52.314;7.938;2024-03-23T11:34:48;1.40;;;0.87;;
20458;SDS011;10388;52.314;7.938;2024-03-23T11:37:18;3.13;;;1.13;;
20458;SDS011;10388;52.314;7.938;2024-03-23T11:39:49;2.67;;;0.90;;
20458;SDS011;10388;52.314;7.938;2024-03-23T11:42:19;1.00;;;0.90;;
20458;SDS011;10388;52.314;7.938;2024-03-23T11:44:51;2.50;;;1.30;;
20458;SDS011;10388;52.314;7.938;2024-03-23T11:47:22;3.23;;;1.53;;
20458;SDS011;10388;52.314;7.938;2024-03-23T11:49:52;1.93;;;1.13;;
20458;SDS011;10388;52.314;7.938;2024-03-23T11:52:23;3.43;;;1.57;;
20458;SDS011;10388;52.314;7.938;2024-03-23T11:55:04;3.37;;;1.80;;
20458;SDS011;10388;52.314;7.938;2024-03-23T11:57:35;4.23;;;1.70;;
20458;SDS011;10388;52.314;7.938;2024-03-23T12:00:20;2.30;;;1.53;;
20458;SDS011;10388;52.314;7.938;2024-03-23T12:02:51;3.00;;;1.60;;
20458;SDS011;10388;52.314;7.938;2024-03-23T12:05:22;2.90;;;1.67;;
20458;SDS011;10388;52.314;7.938;2024-03-23T12:07:53;3.60;;;1.77;;
20458;SDS011;10388;52.314;7.938;2024-03-23T12:10:23;4.40;;;1.97;;
20458;SDS011;10388;52.314;7.938;2024-03-23T12:13:00;2.63;;;1.80;;
20458;SDS011;10388;52.314;7.938;2024-03-23T12:15:31;3.40;;;1.97;;
20458;SDS011;10388;52.314;7.938;2024-03-23T12:18:08;3.33;;;2.00;;
20458;SDS011;10388;52.314;7.938;2024-03-23T12:20:40;2.63;;;2.03;;
20458;SDS011;10388;52.314;7.938;2024-03-23T12:23:11;8.90;;;3.23;;
20458;SDS011;10388;52.314;7.938;2024-03-23T12:25:42;7.03;;;2.77;;
20458;SDS011;10388;52.314;7.938;2024-03-23T12:28:13;4.27;;;2.43;;
20458;SDS011;10388;52.314;7.938;2024-03-23T12:30:43;5.63;;;2.10;;
20458;SDS011;10388;52.314;7.938;2024-03-23T12:33:14;2.00;;;1.80;;
20458;SDS011;10388;52.314;7.938;2024-03-23T12:35:44;3.80;;;1.83;;
20458;SDS011;10388;52.314;7.938;2024-03-23T12:38:15;2.27;;;1.60;;
20458;SDS011;10388;52.314;7.938;2024-03-23T12:40:46;6.00;;;1.83;;
20458;SDS011;10388;52.314;7.938;2024-03-23T12:43:20;3.40;;;1.40;;
20458;SDS011;10388;52.314;7.938;2024-03-23T12:45:50;2.17;;;1.10;;
20458;SDS011;10388;52.314;7.938;2024-03-23T12:48:21;5.20;;;1.70;;
20458;SDS011;10388;52.314;7.938;2024-03-23T12:50:54;2.60;;;2.40;;
20458;SDS011;10388;52.314;7.938;2024-03-23T12:53:25;2.23;;;1.43;;
20458;SDS011;10388;52.314;7.938;2024-03-23T12:55:55;3.73;;;1.97;;
20458;SDS011;10388;52.314;7.938;2024-03-23T12:58:27;2.07;;;1.33;;
20458;SDS011;10388;52.314;7.938;2024-03-23T13:01:00;2.33;;;1.70;;
20458;SDS011;10388;52.314;7.938;2024-03-23T13:03:31;3.50;;;2.10;;
20458;SDS011;10388;52.314;7.938;2024-03-23T13:06:01;2.47;;;1.70;;
20458;SDS011;10388;52.314;7.938;2024-03-23T13:08:37;3.63;;;1.50;;
20458;SDS011;10388;52.314;7.938;2024-03-23T13:11:08;2.00;;;1.40;;
20458;SDS011;10388;52.314;7.938;2024-03-23T13:13:40;4.00;;;1.30;;
20458;SDS011;10388;52.314;7.938;2024-03-23T13:16:11;4.00;;;1.70;;
20458;SDS011;10388;52.314;7.938;2024-03-23T13:18:42;2.50;;;1.20;;
20458;SDS011;10388;52.314;7.938;2024-03-23T13:21:13;1.87;;;1.13;;
20458;SDS011;10388;52.314;7.938;2024-03-23T13:23:46;4.20;;;1.60;;
20458;SDS011;10388;52.314;7.938;2024-03-23T13:26:18;3.87;;;1.37;;
20458;SDS011;10388;52.314;7.938;2024-03-23T13:28:48;2.97;;;1.30;;
20458;SDS011;10388;52.314;7.938;2024-03-23T13:31:19;2.93;;;1.40;;
20458;SDS011;10388;52.314;7.938;2024-03-23T13:33:49;2.03;;;1.27;;
20458;SDS011;10388;52.314;7.938;2024-03-23T13:36:20;6.50;;;1.43;;
20458;SDS011;10388;52.314;7.938;2024-03-23T13:38:50;2.47;;;1.27;;
20458;SDS011;10388;52.314;7.938;2024-03-23T13:41:21;2.17;;;1.30;;
20458;SDS011;10388;52.314;7.938;2024-03-23T13:43:51;1.80;;;1.30;;
20458;SDS011;10388;52.314;7.938;2024-03-23T13:46:23;2.00;;;1.20;;
20458;SDS011;10388;52.314;7.938;2024-03-23T13:48:53;2.00;;;1.00;;
20458;SDS011;10388;52.314;7.938;2024-03-23T13:51:24;2.40;;;1.00;;
20458;SDS011;10388;52.314;7.938;2024-03-23T13:53:57;1.57;;;0.93;;
20458;SDS011;10388;52.314;7.938;2024-03-23T13:56:30;2.20;;;0.80;;
20458;SDS011;10388;52.314;7.938;2024-03-23T13:59:01;2.00;;;1.10;;
20458;SDS011;10388;52.314;7.938;2024-03-23T14:01:31;1.43;;;1.00;;
20458;SDS011;10388;52.314;7.938;2024-03-23T14:04:02;3.00;;;0.93;;
20458;SDS011;10388;52.314;7.938;2024-03-23T14:06:33;1.40;;;1.10;;
20458;SDS011;10388;52.314;7.938;2024-03-23T14:09:03;2.90;;;1.47;;
20458;SDS011;10388;52.314;7.938;2024-03-23T14:11:35;2.97;;;1.27;;
20458;SDS011;10388;52.314;7.938;2024-03-23T14:14:07;1.43;;;1.20;;
20458;SDS011;10388;52.314;7.938;2024-03-23T14:16:38;5.63;;;1.70;;
20458;SDS011;10388;52.314;7.938;2024-03-23T14:19:08;4.30;;;1.27;;
20458;SDS011;10388;52.314;7.938;2024-03-23T14:21:39;0.67;;;0.60;;
20458;SDS011;10388;52.314;7.938;2024-03-23T14:24:10;1.37;;;0.90;;
20458;SDS011;10388;52.314;7.938;2024-03-23T14:26:40;1.10;;;0.90;;
20458;SDS011;10388;52.314;7.938;2024-03-23T14:29:12;2.10;;;1.00;;
20458;SDS011;10388;52.314;7.938;2024-03-23T14:31:42;1.33;;;1.23;;
20458;SDS011;10388;52.314;7.938;2024-03-23T14:34:13;2.23;;;1.27;;
20458;SDS011;10388;52.314;7.938;2024-03-23T14:36:43;1.73;;;1.20;;
20458;SDS011;10388;52.314;7.938;2024-03-23T14:39:14;4.33;;;1.60;;
20458;SDS011;10388;52.314;7.938;2024-03-23T14:41:45;3.73;;;1.67;;
20458;SDS011;10388;52.314;7.938;2024-03-23T14:44:15;2.53;;;1.20;;
20458;SDS011;10388;52.314;7.938;2024-03-23T14:46:46;5.10;;;1.60;;
20458;SDS011;10388;52.314;7.938;2024-03-23T14:49:17;3.60;;;1.50;;
20458;SDS011;10388;52.314;7.938;2024-03-23T14:51:47;2.70;;;1.40;;
20458;SDS011;10388;52.314;7.938;2024-03-23T14:54:19;4.80;;;1.73;;
20458;SDS011;10388;52.314;7.938;2024-03-23T14:56:49;3.07;;;1.60;;
20458;SDS011;10388;52.314;7.938;2024-03-23T14:59:20;5.23;;;2.00;;
20458;SDS011;10388;52.314;7.938;2024-03-23T15:01:50;4.60;;;1.63;;
20458;SDS011;10388;52.314;7.938;2024-03-23T15:04:21;8.23;;;1.90;;
20458;SDS011;10388;52.314;7.938;2024-03-23T15:06:51;2.67;;;1.50;;
20458;SDS011;10388;52.314;7.938;2024-03-23T15:09:22;2.27;;;1.50;;
20458;SDS011;10388;52.314;7.938;2024-03-23T15:11:53;3.40;;;1.63;;
20458;SDS011;10388;52.314;7.938;2024-03-23T15:14:26;4.07;;;1.60;;
20458;SDS011;10388;52.314;7.938;2024-03-23T15:16:57;4.90;;;1.60;;
20458;SDS011;10388;52.314;7.938;2024-03-23T15:19:27;3.20;;;1.70;;
20458;SDS011;10388;52.314;7.938;2024-03-23T15:21:59;4.50;;;1.97;;
20458;SDS011;10388;52.314;7.938;2024-03-23T15:24:29;4.73;;;1.60;;
20458;SDS011;10388;52.314;7.938;2024-03-23T15:27:02;4.63;;;1.83;;
20458;SDS011;10388;52.314;7.938;2024-03-23T15:29:33;4.57;;;1.60;;
20458;SDS011;10388;52.314;7.938;2024-03-23T15:32:04;3.13;;;1.50;;
20458;SDS011;10388;52.314;7.938;2024-03-23T15:34:34;5.03;;;1.63;;
20458;SDS011;10388;52.314;7.938;2024-03-23T15:37:05;3.17;;;1.83;;
20458;SDS011;10388;52.314;7.938;2024-03-23T15:39:36;5.33;;;1.70;;
20458;SDS011;10388;52.314;7.938;2024-03-23T15:42:07;4.23;;;1.50;;
20458;SDS011;10388;52.314;7.938;2024-03-23T15:44:37;3.17;;;1.17;;
20458;SDS011;10388;52.314;7.938;2024-03-23T15:47:08;4.17;;;2.10;;
20458;SDS011;10388;52.314;7.938;2024-03-23T15:49:39;4.17;;;1.87;;
20458;SDS011;10388;52.314;7.938;2024-03-23T15:52:10;5.23;;;1.57;;
20458;SDS011;10388;52.314;7.938;2024-03-23T15:54:43;3.07;;;1.70;;
20458;SDS011;10388;52.314;7.938;2024-03-23T15:57:13;9.00;;;2.60;;
20458;SDS011;10388;52.314;7.938;2024-03-23T15:59:44;4.33;;;2.10;;
20458;SDS011;10388;52.314;7.938;2024-03-23T16:02:15;4.60;;;1.70;;
20458;SDS011;10388;52.314;7.938;2024-03-23T16:04:46;4.03;;;1.70;;